sensor_id;sensor_type;location;lat;lon;timestamp;P1;durP1;ratioP1;P2;durP2;ratioP2
51927;SDS011;37953;52.806;18.270;2023-06-10T00:02:08;8.98;;;4.47;;
51927;SDS011;37953;52.806;18.270;2023-06-10T00:04:34;7.20;;;4.60;;
51927;SDS011;37953;52.806;18.270;2023-06-10T00:12:30;9.25;;;4.65;;
51927;SDS011;37953;52.806;18.270;2023-06-10T00:15:16;10.73;;;4.53;;
51927;SDS011;37953;52.806;18.270;2023-06-10T00:17:43;9.27;;;4.53;;
51927;SDS011;37953;52.806;18.270;2023-06-10T00:20:09;11.13;;;4.40;;
51927;SDS011;37953;52.806;18.270;2023-06-10T00:22:39;8.05;;;4.40;;
51927;SDS011;37953;52.806;18.270;2023-06-10T00:25:06;9.15;;;4.10;;
51927;SDS011;37953;52.806;18.270;2023-06-10T00:27:33;10.23;;;4.50;;
51927;SDS011;37953;52.806;18.270;2023-06-10T00:30:01;15.70;;;4.40;;
51927;SDS011;37953;52.806;18.270;2023-06-10T00:32:30;10.02;;;3.97;;
51927;SDS011;37953;52.806;18.270;2023-06-10T00:34:56;10.07;;;4.00;;
51927;SDS011;37953;52.806;18.270;2023-06-10T00:37:22;9.40;;;4.10;;
51927;SDS011;37953;52.806;18.270;2023-06-10T00:39:48;9.00;;;5.00;;
51927;SDS011;37953;52.806;18.270;2023-06-10T00:42:14;8.70;;;4.50;;
51927;SDS011;37953;52.806;18.270;2023-06-10T00:44:40;13.23;;;4.80;;
51927;SDS011;37953;52.806;18.270;2023-06-10T00:47:06;6.53;;;4.10;;
51927;SDS011;37953;52.806;18.270;2023-06-10T00:49:36;14.65;;;4.13;;
51927;SDS011;37953;52.806;18.270;2023-06-10T00:52:03;5.80;;;4.03;;
51927;SDS011;37953;52.806;18.270;2023-06-10T00:54:31;8.88;;;4.25;;
51927;SDS011;37953;52.806;18.270;2023-06-10T00:57:00;9.82;;;5.07;;
51927;SDS011;37953;52.806;18.270;2023-06-10T00:59:27;9.25;;;4.00;;
51927;SDS011;37953;52.806;18.270;2023-06-10T01:01:59;7.78;;;4.55;;
51927;SDS011;37953;52.806;18.270;2023-06-10T01:04:26;9.63;;;4.50;;
51927;SDS011;37953;52.806;18.270;2023-06-10T01:06:54;7.40;;;4.03;;
51927;SDS011;37953;52.806;18.270;2023-06-10T01:12:49;8.10;;;4.03;;
51927;SDS011;37953;52.806;18.270;2023-06-10T01:15:24;6.35;;;4.00;;
51927;SDS011;37953;52.806;18.270;2023-06-10T01:17:54;6.90;;;3.97;;
51927;SDS011;37953;52.806;18.270;2023-06-10T01:20:35;11.07;;;4.55;;
51927;SDS011;37953;52.806;18.270;2023-06-10T01:23:09;8.63;;;4.43;;
51927;SDS011;37953;52.806;18.270;2023-06-10T01:25:38;7.35;;;4.30;;
51927;SDS011;37953;52.806;18.270;2023-06-10T01:28:14;8.35;;;3.75;;
51927;SDS011;37953;52.806;18.270;2023-06-10T01:33:47;12.05;;;4.68;;
51927;SDS011;37953;52.806;18.270;2023-06-10T01:36:17;6.80;;;4.17;;
51927;SDS011;37953;52.806;18.270;2023-06-10T01:38:44;10.43;;;4.38;;
51927;SDS011;37953;52.806;18.270;2023-06-10T01:41:13;8.77;;;4.13;;
51927;SDS011;37953;52.806;18.270;2023-06-10T01:43:54;11.40;;;4.13;;
51927;SDS011;37953;52.806;18.270;2023-06-10T01:46:20;10.07;;;4.10;;
51927;SDS011;37953;52.806;18.270;2023-06-10T01:48:47;6.28;;;4.25;;
51927;SDS011;37953;52.806;18.270;2023-06-10T01:51:32;6.70;;;4.15;;
51927;SDS011;37953;52.806;18.270;2023-06-10T01:53:59;9.57;;;4.40;;
51927;SDS011;37953;52.806;18.270;2023-06-10T01:56:25;8.02;;;4.20;;
51927;SDS011;37953;52.806;18.270;2023-06-10T01:58:51;9.88;;;4.00;;
51927;SDS011;37953;52.806;18.270;2023-06-10T02:01:20;9.73;;;3.90;;
51927;SDS011;37953;52.806;18.270;2023-06-10T02:03:46;8.45;;;3.95;;
51927;SDS011;37953;52.806;18.270;2023-06-10T02:06:12;7.78;;;3.97;;
51927;SDS011;37953;52.806;18.270;2023-06-10T02:08:38;7.68;;;4.22;;
51927;SDS011;37953;52.806;18.270;2023-06-10T02:11:04;8.25;;;4.60;;
51927;SDS011;37953;52.806;18.270;2023-06-10T02:13:30;7.70;;;4.30;;
51927;SDS011;37953;52.806;18.270;2023-06-10T02:15:56;9.32;;;4.25;;
51927;SDS011;37953;52.806;18.270;2023-06-10T02:18:22;10.60;;;4.35;;
51927;SDS011;37953;52.806;18.270;2023-06-10T02:20:49;7.47;;;4.25;;
51927;SDS011;37953;52.806;18.270;2023-06-10T02:23:15;12.05;;;4.05;;
51927;SDS011;37953;52.806;18.270;2023-06-10T02:25:41;9.52;;;4.35;;
51927;SDS011;37953;52.806;18.270;2023-06-10T02:28:07;9.18;;;4.47;;
51927;SDS011;37953;52.806;18.270;2023-06-10T02:30:33;16.05;;;4.53;;
51927;SDS011;37953;52.806;18.270;2023-06-10T02:32:59;11.30;;;4.13;;
51927;SDS011;37953;52.806;18.270;2023-06-10T02:35:26;13.75;;;4.85;;
51927;SDS011;37953;52.806;18.270;2023-06-10T02:37:52;10.13;;;4.00;;
51927;SDS011;37953;52.806;18.270;2023-06-10T02:40:25;7.53;;;4.15;;
51927;SDS011;37953;52.806;18.270;2023-06-10T02:42:51;12.60;;;4.55;;
51927;SDS011;37953;52.806;18.270;2023-06-10T02:45:17;13.07;;;4.75;;
51927;SDS011;37953;52.806;18.270;2023-06-10T02:47:43;10.38;;;4.20;;
51927;SDS011;37953;52.806;18.270;2023-06-10T02:50:09;8.32;;;4.40;;
51927;SDS011;37953;52.806;18.270;2023-06-10T02:52:35;12.75;;;4.95;;
51927;SDS011;37953;52.806;18.270;2023-06-10T02:55:01;10.80;;;4.10;;
51927;SDS011;37953;52.806;18.270;2023-06-10T02:57:27;9.65;;;4.75;;
51927;SDS011;37953;52.806;18.270;2023-06-10T02:59:53;7.32;;;4.57;;
51927;SDS011;37953;52.806;18.270;2023-06-10T03:02:19;10.32;;;4.55;;
51927;SDS011;37953;52.806;18.270;2023-06-10T03:04:45;9.05;;;4.40;;
51927;SDS011;37953;52.806;18.270;2023-06-10T03:07:11;8.15;;;4.80;;
51927;SDS011;37953;52.806;18.270;2023-06-10T03:09:37;7.70;;;4.53;;
51927;SDS011;37953;52.806;18.270;2023-06-10T03:12:04;7.88;;;4.35;;
51927;SDS011;37953;52.806;18.270;2023-06-10T03:14:31;11.20;;;5.05;;
51927;SDS011;37953;52.806;18.270;2023-06-10T03:16:57;9.48;;;4.80;;
51927;SDS011;37953;52.806;18.270;2023-06-10T03:19:23;9.77;;;4.50;;
51927;SDS011;37953;52.806;18.270;2023-06-10T03:21:50;10.63;;;4.28;;
51927;SDS011;37953;52.806;18.270;2023-06-10T03:24:23;14.45;;;5.10;;
51927;SDS011;37953;52.806;18.270;2023-06-10T03:26:49;12.15;;;4.63;;
51927;SDS011;37953;52.806;18.270;2023-06-10T03:29:15;11.82;;;5.00;;
51927;SDS011;37953;52.806;18.270;2023-06-10T03:31:41;17.63;;;5.03;;
51927;SDS011;37953;52.806;18.270;2023-06-10T03:34:07;12.05;;;4.80;;
51927;SDS011;37953;52.806;18.270;2023-06-10T03:36:33;8.05;;;4.78;;
51927;SDS011;37953;52.806;18.270;2023-06-10T03:38:59;11.20;;;5.10;;
51927;SDS011;37953;52.806;18.270;2023-06-10T03:41:25;13.48;;;4.40;;
51927;SDS011;37953;52.806;18.270;2023-06-10T03:43:52;10.63;;;4.40;;
51927;SDS011;37953;52.806;18.270;2023-06-10T03:46:18;10.27;;;4.38;;
51927;SDS011;37953;52.806;18.270;2023-06-10T03:48:44;10.10;;;4.38;;
51927;SDS011;37953;52.806;18.270;2023-06-10T03:51:10;7.68;;;4.13;;
51927;SDS011;37953;52.806;18.270;2023-06-10T03:53:36;8.00;;;4.45;;
51927;SDS011;37953;52.806;18.270;2023-06-10T03:56:02;10.27;;;4.70;;
51927;SDS011;37953;52.806;18.270;2023-06-10T03:58:28;12.65;;;4.50;;
51927;SDS011;37953;52.806;18.270;2023-06-10T04:00:55;11.02;;;4.80;;
51927;SDS011;37953;52.806;18.270;2023-06-10T04:03:20;10.25;;;5.32;;
51927;SDS011;37953;52.806;18.270;2023-06-10T04:05:48;14.77;;;5.97;;
51927;SDS011;37953;52.806;18.270;2023-06-10T04:08:15;13.90;;;5.50;;
51927;SDS011;37953;52.806;18.270;2023-06-10T04:10:47;12.93;;;5.13;;
51927;SDS011;37953;52.806;18.270;2023-06-10T04:13:13;13.00;;;5.43;;
51927;SDS011;37953;52.806;18.270;2023-06-10T04:15:40;10.05;;;4.55;;
51927;SDS011;37953;52.806;18.270;2023-06-10T04:18:06;17.25;;;5.28;;
51927;SDS011;37953;52.806;18.270;2023-06-10T04:20:32;14.70;;;4.88;;
51927;SDS011;37953;52.806;18.270;2023-06-10T04:22:58;25.08;;;4.80;;
51927;SDS011;37953;52.806;18.270;2023-06-10T04:25:25;10.10;;;4.97;;
51927;SDS011;37953;52.806;18.270;2023-06-10T04:27:51;17.02;;;5.20;;
51927;SDS011;37953;52.806;18.270;2023-06-10T04:30:17;13.18;;;5.70;;
51927;SDS011;37953;52.806;18.270;2023-06-10T04:32:44;12.80;;;6.10;;
51927;SDS011;37953;52.806;18.270;2023-06-10T04:35:14;13.05;;;6.40;;
51927;SDS011;37953;52.806;18.270;2023-06-10T04:37:41;10.60;;;5.05;;
51927;SDS011;37953;52.806;18.270;2023-06-10T04:40:08;11.05;;;5.35;;
51927;SDS011;37953;52.806;18.270;2023-06-10T04:42:34;15.93;;;4.65;;
51927;SDS011;37953;52.806;18.270;2023-06-10T04:45:01;11.73;;;4.53;;
51927;SDS011;37953;52.806;18.270;2023-06-10T04:47:29;8.27;;;4.45;;
51927;SDS011;37953;52.806;18.270;2023-06-10T04:49:59;10.18;;;4.45;;
51927;SDS011;37953;52.806;18.270;2023-06-10T04:52:25;12.07;;;4.60;;
51927;SDS011;37953;52.806;18.270;2023-06-10T04:54:52;13.18;;;4.63;;
51927;SDS011;37953;52.806;18.270;2023-06-10T04:57:19;10.50;;;4.88;;
51927;SDS011;37953;52.806;18.270;2023-06-10T04:59:49;9.98;;;4.60;;
51927;SDS011;37953;52.806;18.270;2023-06-10T05:02:15;11.70;;;4.40;;
51927;SDS011;37953;52.806;18.270;2023-06-10T05:04:41;14.13;;;4.65;;
51927;SDS011;37953;52.806;18.270;2023-06-10T05:07:07;17.45;;;4.80;;
51927;SDS011;37953;52.806;18.270;2023-06-10T05:09:33;14.73;;;4.63;;
51927;SDS011;37953;52.806;18.270;2023-06-10T05:12:00;12.38;;;4.70;;
51927;SDS011;37953;52.806;18.270;2023-06-10T05:14:26;16.35;;;4.57;;
51927;SDS011;37953;52.806;18.270;2023-06-10T05:16:53;7.18;;;3.63;;
51927;SDS011;37953;52.806;18.270;2023-06-10T05:19:19;14.98;;;4.72;;
51927;SDS011;37953;52.806;18.270;2023-06-10T05:21:45;9.88;;;4.57;;
51927;SDS011;37953;52.806;18.270;2023-06-10T05:24:14;13.65;;;4.85;;
51927;SDS011;37953;52.806;18.270;2023-06-10T05:26:40;10.45;;;4.18;;
51927;SDS011;37953;52.806;18.270;2023-06-10T05:29:07;13.27;;;4.45;;
51927;SDS011;37953;52.806;18.270;2023-06-10T05:31:34;8.70;;;4.25;;
51927;SDS011;37953;52.806;18.270;2023-06-10T05:34:07;9.93;;;4.43;;
51927;SDS011;37953;52.806;18.270;2023-06-10T05:36:33;11.02;;;4.88;;
51927;SDS011;37953;52.806;18.270;2023-06-10T05:38:59;10.02;;;4.35;;
51927;SDS011;37953;52.806;18.270;2023-06-10T05:41:25;13.73;;;4.05;;
51927;SDS011;37953;52.806;18.270;2023-06-10T05:43:51;9.27;;;4.00;;
51927;SDS011;37953;52.806;18.270;2023-06-10T05:46:17;10.13;;;4.85;;
51927;SDS011;37953;52.806;18.270;2023-06-10T05:48:43;10.88;;;4.40;;
51927;SDS011;37953;52.806;18.270;2023-06-10T05:51:09;10.30;;;4.07;;
51927;SDS011;37953;52.806;18.270;2023-06-10T05:53:36;11.68;;;4.22;;
51927;SDS011;37953;52.806;18.270;2023-06-10T05:56:02;8.82;;;4.00;;
51927;SDS011;37953;52.806;18.270;2023-06-10T05:58:28;12.80;;;3.92;;
51927;SDS011;37953;52.806;18.270;2023-06-10T06:00:54;8.00;;;4.25;;
51927;SDS011;37953;52.806;18.270;2023-06-10T06:03:20;11.55;;;4.70;;
51927;SDS011;37953;52.806;18.270;2023-06-10T06:05:46;8.43;;;4.72;;
51927;SDS011;37953;52.806;18.270;2023-06-10T06:08:12;7.35;;;3.83;;
51927;SDS011;37953;52.806;18.270;2023-06-10T06:10:46;7.68;;;4.05;;
51927;SDS011;37953;52.806;18.270;2023-06-10T06:13:16;14.50;;;3.92;;
51927;SDS011;37953;52.806;18.270;2023-06-10T06:15:41;13.35;;;4.25;;
51927;SDS011;37953;52.806;18.270;2023-06-10T06:18:08;9.35;;;3.83;;
51927;SDS011;37953;52.806;18.270;2023-06-10T06:20:33;12.32;;;4.68;;
51927;SDS011;37953;52.806;18.270;2023-06-10T06:22:59;12.88;;;4.63;;
51927;SDS011;37953;52.806;18.270;2023-06-10T06:25:25;11.55;;;4.35;;
51927;SDS011;37953;52.806;18.270;2023-06-10T06:27:51;13.10;;;4.40;;
51927;SDS011;37953;52.806;18.270;2023-06-10T06:30:17;10.52;;;4.00;;
51927;SDS011;37953;52.806;18.270;2023-06-10T06:32:44;10.35;;;4.10;;
51927;SDS011;37953;52.806;18.270;2023-06-10T06:35:13;9.55;;;4.07;;
51927;SDS011;37953;52.806;18.270;2023-06-10T06:37:39;9.50;;;3.70;;
51927;SDS011;37953;52.806;18.270;2023-06-10T06:40:05;31.55;;;4.72;;
51927;SDS011;37953;52.806;18.270;2023-06-10T06:42:32;27.25;;;4.95;;
51927;SDS011;37953;52.806;18.270;2023-06-10T06:44:58;29.23;;;5.57;;
51927;SDS011;37953;52.806;18.270;2023-06-10T06:47:24;37.42;;;5.65;;
51927;SDS011;37953;52.806;18.270;2023-06-10T06:49:51;19.52;;;4.75;;
51927;SDS011;37953;52.806;18.270;2023-06-10T06:52:24;29.92;;;5.10;;
51927;SDS011;37953;52.806;18.270;2023-06-10T06:54:50;27.33;;;4.82;;
51927;SDS011;37953;52.806;18.270;2023-06-10T06:57:16;21.33;;;4.95;;
51927;SDS011;37953;52.806;18.270;2023-06-10T06:59:42;42.13;;;5.25;;
51927;SDS011;37953;52.806;18.270;2023-06-10T07:02:08;28.75;;;6.15;;
51927;SDS011;37953;52.806;18.270;2023-06-10T07:04:34;31.80;;;6.28;;
51927;SDS011;37953;52.806;18.270;2023-06-10T07:07:00;33.53;;;6.43;;
51927;SDS011;37953;52.806;18.270;2023-06-10T07:09:26;28.90;;;4.70;;
51927;SDS011;37953;52.806;18.270;2023-06-10T07:11:53;32.85;;;5.25;;
51927;SDS011;37953;52.806;18.270;2023-06-10T07:14:19;31.52;;;6.10;;
51927;SDS011;37953;52.806;18.270;2023-06-10T07:16:46;30.83;;;4.55;;
51927;SDS011;37953;52.806;18.270;2023-06-10T07:19:16;30.38;;;5.13;;
51927;SDS011;37953;52.806;18.270;2023-06-10T07:21:42;18.40;;;7.53;;
51927;SDS011;37953;52.806;18.270;2023-06-10T07:24:08;22.95;;;6.22;;
51927;SDS011;37953;52.806;18.270;2023-06-10T07:26:35;20.98;;;4.72;;
51927;SDS011;37953;52.806;18.270;2023-06-10T07:29:01;24.92;;;4.60;;
51927;SDS011;37953;52.806;18.270;2023-06-10T07:31:27;17.70;;;5.00;;
51927;SDS011;37953;52.806;18.270;2023-06-10T07:33:53;23.17;;;4.93;;
51927;SDS011;37953;52.806;18.270;2023-06-10T07:36:19;27.67;;;5.82;;
51927;SDS011;37953;52.806;18.270;2023-06-10T07:38:45;60.50;;;27.45;;
51927;SDS011;37953;52.806;18.270;2023-06-10T07:41:11;61.75;;;28.05;;
51927;SDS011;37953;52.806;18.270;2023-06-10T07:43:38;53.42;;;23.50;;
51927;SDS011;37953;52.806;18.270;2023-06-10T07:46:04;33.25;;;14.63;;
51927;SDS011;37953;52.806;18.270;2023-06-10T07:48:30;29.25;;;10.13;;
51927;SDS011;37953;52.806;18.270;2023-06-10T07:51:00;30.05;;;11.27;;
51927;SDS011;37953;52.806;18.270;2023-06-10T07:53:26;44.85;;;10.13;;
51927;SDS011;37953;52.806;18.270;2023-06-10T07:55:52;22.50;;;7.93;;
51927;SDS011;37953;52.806;18.270;2023-06-10T07:58:18;29.55;;;12.05;;
51927;SDS011;37953;52.806;18.270;2023-06-10T08:00:44;34.28;;;8.90;;
51927;SDS011;37953;52.806;18.270;2023-06-10T08:03:10;25.88;;;10.50;;
51927;SDS011;37953;52.806;18.270;2023-06-10T08:05:36;19.23;;;5.20;;
51927;SDS011;37953;52.806;18.270;2023-06-10T08:08:02;24.08;;;7.05;;
51927;SDS011;37953;52.806;18.270;2023-06-10T08:10:29;121.13;;;67.45;;
51927;SDS011;37953;52.806;18.270;2023-06-10T08:12:54;77.07;;;43.65;;
51927;SDS011;37953;52.806;18.270;2023-06-10T08:15:21;98.13;;;47.50;;
51927;SDS011;37953;52.806;18.270;2023-06-10T08:17:47;52.33;;;25.50;;
51927;SDS011;37953;52.806;18.270;2023-06-10T08:20:13;68.78;;;35.83;;
51927;SDS011;37953;52.806;18.270;2023-06-10T08:22:39;41.17;;;16.02;;
51927;SDS011;37953;52.806;18.270;2023-06-10T08:25:05;25.48;;;8.63;;
51927;SDS011;37953;52.806;18.270;2023-06-10T08:27:31;25.20;;;8.02;;
51927;SDS011;37953;52.806;18.270;2023-06-10T08:29:57;18.83;;;5.57;;
51927;SDS011;37953;52.806;18.270;2023-06-10T08:32:25;15.70;;;4.90;;
51927;SDS011;37953;52.806;18.270;2023-06-10T08:34:52;19.50;;;5.13;;
51927;SDS011;37953;52.806;18.270;2023-06-10T08:37:17;14.13;;;4.20;;
51927;SDS011;37953;52.806;18.270;2023-06-10T08:39:43;14.43;;;4.70;;
51927;SDS011;37953;52.806;18.270;2023-06-10T08:44:59;11.57;;;3.72;;
51927;SDS011;37953;52.806;18.270;2023-06-10T08:47:28;18.00;;;3.90;;
51927;SDS011;37953;52.806;18.270;2023-06-10T08:50:01;18.67;;;4.18;;
51927;SDS011;37953;52.806;18.270;2023-06-10T08:52:31;14.02;;;3.92;;
51927;SDS011;37953;52.806;18.270;2023-06-10T08:55:10;13.02;;;3.35;;
51927;SDS011;37953;52.806;18.270;2023-06-10T08:57:48;12.18;;;3.75;;
51927;SDS011;37953;52.806;18.270;2023-06-10T09:00:15;12.57;;;3.67;;
51927;SDS011;37953;52.806;18.270;2023-06-10T09:02:48;10.40;;;3.97;;
51927;SDS011;37953;52.806;18.270;2023-06-10T09:05:15;11.38;;;3.63;;
51927;SDS011;37953;52.806;18.270;2023-06-10T09:07:41;11.80;;;3.80;;
51927;SDS011;37953;52.806;18.270;2023-06-10T09:10:08;44.33;;;26.75;;
51927;SDS011;37953;52.806;18.270;2023-06-10T09:12:35;115.28;;;69.50;;
51927;SDS011;37953;52.806;18.270;2023-06-10T09:15:08;25.33;;;8.00;;
51927;SDS011;37953;52.806;18.270;2023-06-10T09:17:34;19.67;;;5.63;;
51927;SDS011;37953;52.806;18.270;2023-06-10T09:20:02;19.42;;;4.85;;
51927;SDS011;37953;52.806;18.270;2023-06-10T09:22:28;20.30;;;4.13;;
51927;SDS011;37953;52.806;18.270;2023-06-10T09:25:07;16.00;;;3.95;;
51927;SDS011;37953;52.806;18.270;2023-06-10T09:27:54;20.48;;;4.03;;
51927;SDS011;37953;52.806;18.270;2023-06-10T09:30:31;14.52;;;3.60;;
51927;SDS011;37953;52.806;18.270;2023-06-10T09:33:02;22.50;;;4.05;;
51927;SDS011;37953;52.806;18.270;2023-06-10T09:35:34;14.02;;;3.50;;
51927;SDS011;37953;52.806;18.270;2023-06-10T09:38:00;17.20;;;3.47;;
51927;SDS011;37953;52.806;18.270;2023-06-10T09:40:33;86.35;;;49.25;;
51927;SDS011;37953;52.806;18.270;2023-06-10T09:43:17;55.45;;;25.40;;
51927;SDS011;37953;52.806;18.270;2023-06-10T09:45:43;18.85;;;7.78;;
51927;SDS011;37953;52.806;18.270;2023-06-10T09:48:09;24.13;;;5.20;;
51927;SDS011;37953;52.806;18.270;2023-06-10T09:50:43;15.63;;;4.10;;
51927;SDS011;37953;52.806;18.270;2023-06-10T09:53:10;16.15;;;4.07;;
51927;SDS011;37953;52.806;18.270;2023-06-10T09:55:39;14.55;;;3.95;;
51927;SDS011;37953;52.806;18.270;2023-06-10T09:58:06;11.57;;;3.63;;
51927;SDS011;37953;52.806;18.270;2023-06-10T10:00:33;14.48;;;3.30;;
51927;SDS011;37953;52.806;18.270;2023-06-10T10:03:00;15.05;;;3.20;;
51927;SDS011;37953;52.806;18.270;2023-06-10T10:05:27;20.45;;;3.47;;
51927;SDS011;37953;52.806;18.270;2023-06-10T10:07:53;20.25;;;3.38;;
51927;SDS011;37953;52.806;18.270;2023-06-10T10:10:21;16.77;;;3.55;;
51927;SDS011;37953;52.806;18.270;2023-06-10T10:12:53;13.60;;;3.20;;
51927;SDS011;37953;52.806;18.270;2023-06-10T10:15:22;18.88;;;3.20;;
51927;SDS011;37953;52.806;18.270;2023-06-10T10:20:54;15.85;;;3.15;;
51927;SDS011;37953;52.806;18.270;2023-06-10T10:23:40;13.32;;;3.10;;
51927;SDS011;37953;52.806;18.270;2023-06-10T10:26:10;17.95;;;2.92;;
51927;SDS011;37953;52.806;18.270;2023-06-10T10:28:41;13.65;;;2.88;;
51927;SDS011;37953;52.806;18.270;2023-06-10T10:31:27;16.58;;;3.08;;
51927;SDS011;37953;52.806;18.270;2023-06-10T10:36:24;11.48;;;2.75;;
51927;SDS011;37953;52.806;18.270;2023-06-10T10:38:54;14.90;;;3.30;;
51927;SDS011;37953;52.806;18.270;2023-06-10T10:41:21;14.40;;;3.00;;
51927;SDS011;37953;52.806;18.270;2023-06-10T10:43:50;14.27;;;3.03;;
51927;SDS011;37953;52.806;18.270;2023-06-10T10:46:17;19.38;;;3.15;;
51927;SDS011;37953;52.806;18.270;2023-06-10T10:48:44;11.68;;;2.92;;
51927;SDS011;37953;52.806;18.270;2023-06-10T10:51:10;12.93;;;2.88;;
51927;SDS011;37953;52.806;18.270;2023-06-10T10:53:37;14.15;;;3.08;;
51927;SDS011;37953;52.806;18.270;2023-06-10T10:56:04;18.20;;;3.28;;
51927;SDS011;37953;52.806;18.270;2023-06-10T10:58:37;17.25;;;3.17;;
51927;SDS011;37953;52.806;18.270;2023-06-10T11:01:13;17.40;;;3.10;;
51927;SDS011;37953;52.806;18.270;2023-06-10T11:03:44;10.75;;;3.22;;
51927;SDS011;37953;52.806;18.270;2023-06-10T11:06:15;14.98;;;3.67;;
51927;SDS011;37953;52.806;18.270;2023-06-10T11:11:30;13.20;;;3.08;;
51927;SDS011;37953;52.806;18.270;2023-06-10T11:16:27;25.63;;;3.38;;
51927;SDS011;37953;52.806;18.270;2023-06-10T11:18:54;13.05;;;2.53;;
51927;SDS011;37953;52.806;18.270;2023-06-10T11:21:22;23.65;;;3.38;;
51927;SDS011;37953;52.806;18.270;2023-06-10T11:23:50;10.70;;;2.80;;
51927;SDS011;37953;52.806;18.270;2023-06-10T11:26:20;7.30;;;2.85;;
51927;SDS011;37953;52.806;18.270;2023-06-10T11:29:16;16.75;;;3.33;;
51927;SDS011;37953;52.806;18.270;2023-06-10T11:32:03;16.23;;;2.78;;
51927;SDS011;37953;52.806;18.270;2023-06-10T11:34:35;11.45;;;3.03;;
51927;SDS011;37953;52.806;18.270;2023-06-10T11:37:01;19.70;;;3.28;;
51927;SDS011;37953;52.806;18.270;2023-06-10T11:39:29;10.05;;;2.50;;
51927;SDS011;37953;52.806;18.270;2023-06-10T11:41:55;13.57;;;2.65;;
51927;SDS011;37953;52.806;18.270;2023-06-10T11:44:22;26.10;;;3.40;;
51927;SDS011;37953;52.806;18.270;2023-06-10T11:46:53;17.10;;;3.22;;
51927;SDS011;37953;52.806;18.270;2023-06-10T11:49:22;24.13;;;3.08;;
51927;SDS011;37953;52.806;18.270;2023-06-10T11:51:49;13.07;;;3.20;;
51927;SDS011;37953;52.806;18.270;2023-06-10T11:54:17;11.88;;;2.63;;
51927;SDS011;37953;52.806;18.270;2023-06-10T11:56:43;17.30;;;3.03;;
51927;SDS011;37953;52.806;18.270;2023-06-10T11:59:15;21.30;;;2.85;;
51927;SDS011;37953;52.806;18.270;2023-06-10T12:01:42;15.15;;;2.80;;
51927;SDS011;37953;52.806;18.270;2023-06-10T12:04:11;10.95;;;2.33;;
51927;SDS011;37953;52.806;18.270;2023-06-10T12:06:44;20.98;;;2.83;;
51927;SDS011;37953;52.806;18.270;2023-06-10T12:09:21;18.30;;;3.33;;
51927;SDS011;37953;52.806;18.270;2023-06-10T12:11:52;12.48;;;2.90;;
51927;SDS011;37953;52.806;18.270;2023-06-10T12:19:57;16.30;;;2.60;;
51927;SDS011;37953;52.806;18.270;2023-06-10T12:22:24;10.30;;;2.58;;
51927;SDS011;37953;52.806;18.270;2023-06-10T12:27:29;12.68;;;2.65;;
51927;SDS011;37953;52.806;18.270;2023-06-10T12:29:56;13.43;;;2.90;;
51927;SDS011;37953;52.806;18.270;2023-06-10T12:32:41;17.65;;;2.58;;
51927;SDS011;37953;52.806;18.270;2023-06-10T12:35:12;15.38;;;2.97;;
51927;SDS011;37953;52.806;18.270;2023-06-10T12:37:56;16.92;;;2.67;;
51927;SDS011;37953;52.806;18.270;2023-06-10T12:40:30;13.02;;;2.63;;
51927;SDS011;37953;52.806;18.270;2023-06-10T12:42:57;12.40;;;2.30;;
51927;SDS011;37953;52.806;18.270;2023-06-10T12:45:27;10.70;;;2.28;;
51927;SDS011;37953;52.806;18.270;2023-06-10T12:48:30;14.63;;;2.50;;
51927;SDS011;37953;52.806;18.270;2023-06-10T12:50:54;13.98;;;2.78;;
51927;SDS011;37953;52.806;18.270;2023-06-10T12:53:21;16.83;;;2.38;;
51927;SDS011;37953;52.806;18.270;2023-06-10T12:55:54;8.50;;;2.20;;
51927;SDS011;37953;52.806;18.270;2023-06-10T12:58:20;18.92;;;2.45;;
51927;SDS011;37953;52.806;18.270;2023-06-10T13:00:47;14.27;;;2.30;;
51927;SDS011;37953;52.806;18.270;2023-06-10T13:03:14;13.75;;;2.50;;
51927;SDS011;37953;52.806;18.270;2023-06-10T13:05:41;15.02;;;2.25;;
51927;SDS011;37953;52.806;18.270;2023-06-10T13:08:07;11.63;;;2.20;;
51927;SDS011;37953;52.806;18.270;2023-06-10T13:10:35;12.55;;;2.40;;
51927;SDS011;37953;52.806;18.270;2023-06-10T13:13:02;11.00;;;2.20;;
51927;SDS011;37953;52.806;18.270;2023-06-10T13:15:34;12.02;;;2.35;;
51927;SDS011;37953;52.806;18.270;2023-06-10T13:18:03;8.88;;;2.08;;
51927;SDS011;37953;52.806;18.270;2023-06-10T13:20:30;15.75;;;2.45;;
51927;SDS011;37953;52.806;18.270;2023-06-10T13:22:56;13.45;;;2.25;;
51927;SDS011;37953;52.806;18.270;2023-06-10T13:25:22;14.15;;;2.50;;
51927;SDS011;37953;52.806;18.270;2023-06-10T13:27:48;15.55;;;2.63;;
51927;SDS011;37953;52.806;18.270;2023-06-10T13:30:14;12.40;;;2.50;;
51927;SDS011;37953;52.806;18.270;2023-06-10T13:32:41;14.15;;;2.30;;
51927;SDS011;37953;52.806;18.270;2023-06-10T13:35:07;10.15;;;2.20;;
51927;SDS011;37953;52.806;18.270;2023-06-10T13:37:33;10.60;;;2.55;;
51927;SDS011;37953;52.806;18.270;2023-06-10T13:40:00;11.88;;;2.28;;
51927;SDS011;37953;52.806;18.270;2023-06-10T13:42:26;14.38;;;2.10;;
51927;SDS011;37953;52.806;18.270;2023-06-10T13:44:58;15.77;;;2.22;;
51927;SDS011;37953;52.806;18.270;2023-06-10T13:47:25;16.08;;;2.40;;
51927;SDS011;37953;52.806;18.270;2023-06-10T13:49:51;15.23;;;2.15;;
51927;SDS011;37953;52.806;18.270;2023-06-10T13:52:17;11.45;;;1.85;;
51927;SDS011;37953;52.806;18.270;2023-06-10T13:54:43;24.13;;;2.97;;
51927;SDS011;37953;52.806;18.270;2023-06-10T13:57:09;9.73;;;2.25;;
51927;SDS011;37953;52.806;18.270;2023-06-10T13:59:36;10.98;;;2.25;;
51927;SDS011;37953;52.806;18.270;2023-06-10T14:02:02;15.38;;;2.58;;
51927;SDS011;37953;52.806;18.270;2023-06-10T14:04:29;10.35;;;2.20;;
51927;SDS011;37953;52.806;18.270;2023-06-10T14:06:55;13.68;;;2.20;;
51927;SDS011;37953;52.806;18.270;2023-06-10T14:09:22;21.70;;;2.78;;
51927;SDS011;37953;52.806;18.270;2023-06-10T14:11:48;8.18;;;2.08;;
51927;SDS011;37953;52.806;18.270;2023-06-10T14:14:14;21.70;;;2.35;;
51927;SDS011;37953;52.806;18.270;2023-06-10T14:16:41;18.35;;;2.60;;
51927;SDS011;37953;52.806;18.270;2023-06-10T14:19:07;15.07;;;2.65;;
51927;SDS011;37953;52.806;18.270;2023-06-10T14:21:33;13.48;;;2.55;;
51927;SDS011;37953;52.806;18.270;2023-06-10T14:23:59;10.05;;;2.28;;
51927;SDS011;37953;52.806;18.270;2023-06-10T14:26:28;15.05;;;2.70;;
51927;SDS011;37953;52.806;18.270;2023-06-10T14:28:54;11.02;;;2.58;;
51927;SDS011;37953;52.806;18.270;2023-06-10T14:31:20;13.38;;;2.40;;
51927;SDS011;37953;52.806;18.270;2023-06-10T14:33:46;13.15;;;2.25;;
51927;SDS011;37953;52.806;18.270;2023-06-10T14:36:12;10.60;;;2.30;;
51927;SDS011;37953;52.806;18.270;2023-06-10T14:38:38;11.52;;;2.63;;
51927;SDS011;37953;52.806;18.270;2023-06-10T14:41:04;6.72;;;2.40;;
51927;SDS011;37953;52.806;18.270;2023-06-10T14:43:30;16.40;;;2.50;;
51927;SDS011;37953;52.806;18.270;2023-06-10T14:45:56;12.52;;;2.58;;
51927;SDS011;37953;52.806;18.270;2023-06-10T14:48:22;10.85;;;2.53;;
51927;SDS011;37953;52.806;18.270;2023-06-10T14:50:49;13.52;;;2.30;;
51927;SDS011;37953;52.806;18.270;2023-06-10T14:53:20;15.73;;;2.58;;
51927;SDS011;37953;52.806;18.270;2023-06-10T14:55:46;16.40;;;2.22;;
51927;SDS011;37953;52.806;18.270;2023-06-10T14:58:12;15.57;;;2.75;;
51927;SDS011;37953;52.806;18.270;2023-06-10T15:00:38;13.82;;;2.40;;
51927;SDS011;37953;52.806;18.270;2023-06-10T15:03:04;11.20;;;2.28;;